sensor_id;sensor_type;location;lat;lon;timestamp;pressure;altitude;pressure_sealevel;temperature;humidity
49723;BME280;43484;43.608;1.458;2023-05-25T00:01:09;99313.56;;;17.28;100.00
49723;BME280;43484;43.608;1.458;2023-05-25T00:03:37;99313.69;;;17.01;100.00
49723;BME280;43484;43.608;1.458;2023-05-25T00:06:06;99298.97;;;17.09;100.00
49723;BME280;43484;43.608;1.458;2023-05-25T00:08:32;99292.09;;;17.09;100.00
49723;BME280;43484;43.608;1.458;2023-05-25T00:10:59;99313.59;;;17.17;100.00
49723;BME280;43484;43.608;1.458;2023-05-25T00:13:26;99317.97;;;17.02;100.00
49723;BME280;43484;43.608;1.458;2023-05-25T00:15:52;99316.34;;;16.87;100.00
49723;BME280;43484;43.608;1.458;2023-05-25T00:18:19;99306.91;;;16.74;100.00
49723;BME280;43484;43.608;1.458;2023-05-25T00:20:46;99301.75;;;16.73;100.00
49723;BME280;43484;43.608;1.458;2023-05-25T00:23:13;99294.81;;;16.78;100.00
49723;BME280;43484;43.608;1.458;2023-05-25T00:25:39;99293.03;;;16.87;100.00
49723;BME280;43484;43.608;1.458;2023-05-25T00:28:06;99301.72;;;16.76;100.00
49723;BME280;43484;43.608;1.458;2023-05-25T00:30:33;99300.88;;;16.72;100.00
49723;BME280;43484;43.608;1.458;2023-05-25T00:33:00;99313.84;;;16.62;100.00
49723;BME280;43484;43.608;1.458;2023-05-25T00:35:27;99307.84;;;16.51;100.00
49723;BME280;43484;43.608;1.458;2023-05-25T00:37:54;99304.38;;;16.53;100.00
49723;BME280;43484;43.608;1.458;2023-05-25T00:40:21;99306.13;;;16.54;100.00
49723;BME280;43484;43.608;1.458;2023-05-25T00:42:47;99310.41;;;16.52;100.00
49723;BME280;43484;43.608;1.458;2023-05-25T00:45:14;99315.53;;;16.67;100.00
49723;BME280;43484;43.608;1.458;2023-05-25T00:47:41;99321.63;;;16.47;100.00
49723;BME280;43484;43.608;1.458;2023-05-25T00:50:09;99320.78;;;16.48;100.00
49723;BME280;43484;43.608;1.458;2023-05-25T00:52:40;99316.44;;;16.56;100.00
49723;BME280;43484;43.608;1.458;2023-05-25T00:55:07;99318.16;;;16.57;100.00
49723;BME280;43484;43.608;1.458;2023-05-25T00:57:38;99338.00;;;16.49;100.00
49723;BME280;43484;43.608;1.458;2023-05-25T01:00:07;99337.13;;;16.42;100.00
49723;BME280;43484;43.608;1.458;2023-05-25T01:02:37;99331.09;;;16.52;100.00
49723;BME280;43484;43.608;1.458;2023-05-25T01:05:07;99331.09;;;16.52;100.00
49723;BME280;43484;43.608;1.458;2023-05-25T01:07:36;99337.97;;;16.40;100.00
49723;BME280;43484;43.608;1.458;2023-05-25T01:10:06;99347.50;;;16.27;100.00
49723;BME280;43484;43.608;1.458;2023-05-25T01:12:36;99341.47;;;16.22;100.00
49723;BME280;43484;43.608;1.458;2023-05-25T01:15:04;99341.47;;;16.36;100.00
49723;BME280;43484;43.608;1.458;2023-05-25T01:17:33;99345.75;;;16.33;100.00
49723;BME280;43484;43.608;1.458;2023-05-25T01:20:04;99344.03;;;16.28;100.00
49723;BME280;43484;43.608;1.458;2023-05-25T01:25:12;99344.06;;;16.22;100.00
49723;BME280;43484;43.608;1.458;2023-05-25T01:27:47;99338.88;;;16.25;100.00
49723;BME280;43484;43.608;1.458;2023-05-25T01:30:15;99339.75;;;15.91;100.00
49723;BME280;43484;43.608;1.458;2023-05-25T01:32:44;99332.88;;;15.82;100.00
49723;BME280;43484;43.608;1.458;2023-05-25T01:35:12;99331.13;;;15.60;100.00
49723;BME280;43484;43.608;1.458;2023-05-25T01:37:46;99314.78;;;15.55;100.00
49723;BME280;43484;43.608;1.458;2023-05-25T01:40:14;99303.56;;;15.61;100.00
49723;BME280;43484;43.608;1.458;2023-05-25T01:42:41;99306.19;;;15.62;100.00
49723;BME280;43484;43.608;1.458;2023-05-25T01:45:09;99313.91;;;15.61;100.00
49723;BME280;43484;43.608;1.458;2023-05-25T01:47:49;99309.59;;;15.64;100.00
49723;BME280;43484;43.608;1.458;2023-05-25T01:53:15;99322.53;;;15.52;100.00
49723;BME280;43484;43.608;1.458;2023-05-25T01:55:57;99323.31;;;15.38;100.00
49723;BME280;43484;43.608;1.458;2023-05-25T01:58:25;99319.84;;;15.27;100.00
49723;BME280;43484;43.608;1.458;2023-05-25T02:00:54;99306.06;;;15.26;100.00
49723;BME280;43484;43.608;1.458;2023-05-25T02:03:22;99306.03;;;15.17;100.00
49723;BME280;43484;43.608;1.458;2023-05-25T02:05:49;99310.38;;;15.17;100.00
49723;BME280;43484;43.608;1.458;2023-05-25T02:08:15;99312.94;;;15.23;100.00
49723;BME280;43484;43.608;1.458;2023-05-25T02:10:42;99300.00;;;15.03;100.00
49723;BME280;43484;43.608;1.458;2023-05-25T02:13:08;99304.31;;;15.08;100.00
49723;BME280;43484;43.608;1.458;2023-05-25T02:15:36;99294.84;;;15.01;100.00
49723;BME280;43484;43.608;1.458;2023-05-25T02:18:02;99303.41;;;14.99;100.00
49723;BME280;43484;43.608;1.458;2023-05-25T02:20:31;99306.00;;;14.94;100.00
49723;BME280;43484;43.608;1.458;2023-05-25T02:22:58;99299.13;;;15.02;100.00
49723;BME280;43484;43.608;1.458;2023-05-25T02:25:24;99299.94;;;14.89;100.00
49723;BME280;43484;43.608;1.458;2023-05-25T02:27:51;99304.25;;;14.89;100.00
49723;BME280;43484;43.608;1.458;2023-05-25T02:30:18;99300.84;;;14.93;100.00
49723;BME280;43484;43.608;1.458;2023-05-25T02:32:45;99294.78;;;14.89;100.00
49723;BME280;43484;43.608;1.458;2023-05-25T02:35:11;99293.06;;;14.87;100.00
49723;BME280;43484;43.608;1.458;2023-05-25T02:37:38;99296.50;;;14.89;100.00
49723;BME280;43484;43.608;1.458;2023-05-25T02:40:05;99300.78;;;14.84;100.00
49723;BME280;43484;43.608;1.458;2023-05-25T02:42:32;99304.19;;;14.74;100.00
49723;BME280;43484;43.608;1.458;2023-05-25T02:44:59;99297.28;;;14.67;100.00
49723;BME280;43484;43.608;1.458;2023-05-25T02:47:25;99302.47;;;14.73;100.00
49723;BME280;43484;43.608;1.458;2023-05-25T02:49:52;99298.16;;;14.72;100.00
49723;BME280;43484;43.608;1.458;2023-05-25T02:52:19;99298.13;;;14.61;100.00
49723;BME280;43484;43.608;1.458;2023-05-25T02:54:46;99294.66;;;14.58;100.00
49723;BME280;43484;43.608;1.458;2023-05-25T02:57:13;99291.34;;;14.78;100.00
49723;BME280;43484;43.608;1.458;2023-05-25T02:59:39;99299.03;;;14.71;100.00
49723;BME280;43484;43.608;1.458;2023-05-25T03:02:06;99287.84;;;14.72;100.00
49723;BME280;43484;43.608;1.458;2023-05-25T03:04:33;99292.16;;;14.70;100.00
49723;BME280;43484;43.608;1.458;2023-05-25T03:07:03;99286.06;;;14.53;100.00
49723;BME280;43484;43.608;1.458;2023-05-25T03:09:30;99292.09;;;14.53;100.00
49723;BME280;43484;43.608;1.458;2023-05-25T03:11:57;99292.00;;;14.43;100.00
49723;BME280;43484;43.608;1.458;2023-05-25T03:14:23;99288.50;;;14.30;100.00
49723;BME280;43484;43.608;1.458;2023-05-25T03:16:50;99287.69;;;14.39;100.00
49723;BME280;43484;43.608;1.458;2023-05-25T03:19:19;99279.94;;;14.37;100.00
49723;BME280;43484;43.608;1.458;2023-05-25T03:21:46;99272.22;;;14.37;100.00
49723;BME280;43484;43.608;1.458;2023-05-25T03:24:12;99270.50;;;14.35;100.00
49723;BME280;43484;43.608;1.458;2023-05-25T03:26:39;99272.22;;;14.33;100.00
49723;BME280;43484;43.608;1.458;2023-05-25T03:29:06;99271.22;;;14.22;100.00
49723;BME280;43484;43.608;1.458;2023-05-25T03:31:33;99273.91;;;14.31;100.00
49723;BME280;43484;43.608;1.458;2023-05-25T03:33:59;99273.09;;;14.35;100.00
49723;BME280;43484;43.608;1.458;2023-05-25T03:36:26;99278.19;;;14.32;100.00
49723;BME280;43484;43.608;1.458;2023-05-25T03:38:53;99282.41;;;14.24;100.00
49723;BME280;43484;43.608;1.458;2023-05-25T03:41:20;99283.34;;;14.27;100.00
49723;BME280;43484;43.608;1.458;2023-05-25T03:43:47;99282.47;;;14.27;100.00
49723;BME280;43484;43.608;1.458;2023-05-25T03:46:13;99282.41;;;14.21;100.00
49723;BME280;43484;43.608;1.458;2023-05-25T03:48:40;99284.09;;;14.14;100.00
49723;BME280;43484;43.608;1.458;2023-05-25T03:51:07;99293.50;;;14.09;100.00
49723;BME280;43484;43.608;1.458;2023-05-25T03:53:33;99291.00;;;14.18;100.00
49723;BME280;43484;43.608;1.458;2023-05-25T03:56:00;99278.94;;;14.13;100.00
49723;BME280;43484;43.608;1.458;2023-05-25T03:58:27;99284.09;;;14.17;100.00
49723;BME280;43484;43.608;1.458;2023-05-25T04:00:53;99273.75;;;14.10;100.00
49723;BME280;43484;43.608;1.458;2023-05-25T04:03:21;99274.59;;;14.09;100.00
49723;BME280;43484;43.608;1.458;2023-05-25T04:05:48;99268.53;;;13.98;100.00
49723;BME280;43484;43.608;1.458;2023-05-25T04:08:16;99268.56;;;14.05;100.00
49723;BME280;43484;43.608;1.458;2023-05-25T04:10:46;99272.81;;;14.02;100.00
49723;BME280;43484;43.608;1.458;2023-05-25T04:13:13;99271.13;;;14.05;100.00
49723;BME280;43484;43.608;1.458;2023-05-25T04:15:39;99269.50;;;14.19;100.00
49723;BME280;43484;43.608;1.458;2023-05-25T04:18:06;99281.44;;;14.04;100.00
49723;BME280;43484;43.608;1.458;2023-05-25T04:20:33;99279.75;;;14.09;100.00
49723;BME280;43484;43.608;1.458;2023-05-25T04:22:59;99278.03;;;14.08;100.00
49723;BME280;43484;43.608;1.458;2023-05-25T04:25:26;99284.03;;;14.07;100.00
49723;BME280;43484;43.608;1.458;2023-05-25T04:27:55;99283.16;;;14.03;100.00
49723;BME280;43484;43.608;1.458;2023-05-25T04:30:22;99280.63;;;14.11;100.00
49723;BME280;43484;43.608;1.458;2023-05-25T04:32:49;99277.94;;;13.94;100.00
49723;BME280;43484;43.608;1.458;2023-05-25T04:35:16;99268.63;;;14.13;100.00
49723;BME280;43484;43.608;1.458;2023-05-25T04:37:46;99282.28;;;13.98;100.00
49723;BME280;43484;43.608;1.458;2023-05-25T04:40:13;99284.75;;;13.84;100.00
49723;BME280;43484;43.608;1.458;2023-05-25T04:42:40;99288.22;;;13.93;100.00
49723;BME280;43484;43.608;1.458;2023-05-25T04:45:07;99286.47;;;13.88;100.00
49723;BME280;43484;43.608;1.458;2023-05-25T04:47:36;99283.88;;;13.87;100.00
49723;BME280;43484;43.608;1.458;2023-05-25T04:50:03;99293.19;;;13.70;100.00
49723;BME280;43484;43.608;1.458;2023-05-25T04:52:29;99282.94;;;13.73;100.00
49723;BME280;43484;43.608;1.458;2023-05-25T04:54:56;99293.25;;;13.76;100.00
49723;BME280;43484;43.608;1.458;2023-05-25T04:57:23;99293.19;;;13.71;100.00
49723;BME280;43484;43.608;1.458;2023-05-25T04:59:49;99296.59;;;13.63;100.00
49723;BME280;43484;43.608;1.458;2023-05-25T05:02:16;99286.31;;;13.67;100.00
49723;BME280;43484;43.608;1.458;2023-05-25T05:04:43;99293.28;;;13.83;100.00
49723;BME280;43484;43.608;1.458;2023-05-25T05:07:09;99294.16;;;13.84;100.00
49723;BME280;43484;43.608;1.458;2023-05-25T05:09:36;99297.56;;;13.80;100.00
49723;BME280;43484;43.608;1.458;2023-05-25T05:12:03;99294.19;;;13.88;100.00
49723;BME280;43484;43.608;1.458;2023-05-25T05:14:29;99298.56;;;14.02;100.00
49723;BME280;43484;43.608;1.458;2023-05-25T05:16:56;99306.16;;;13.83;100.00
49723;BME280;43484;43.608;1.458;2023-05-25T05:19:23;99298.41;;;13.76;100.00
49723;BME280;43484;43.608;1.458;2023-05-25T05:21:49;99303.56;;;13.80;100.00
49723;BME280;43484;43.608;1.458;2023-05-25T05:24:16;99300.13;;;13.81;100.00
49723;BME280;43484;43.608;1.458;2023-05-25T05:26:43;99295.16;;;13.98;100.00
49723;BME280;43484;43.608;1.458;2023-05-25T05:29:24;99300.38;;;14.12;100.00
49723;BME280;43484;43.608;1.458;2023-05-25T05:31:53;99309.75;;;14.04;100.00
49723;BME280;43484;43.608;1.458;2023-05-25T05:34:20;99310.66;;;14.10;100.00
49723;BME280;43484;43.608;1.458;2023-05-25T05:36:47;99302.94;;;14.10;100.00
49723;BME280;43484;43.608;1.458;2023-05-25T05:39:23;99300.38;;;14.12;100.00
49723;BME280;43484;43.608;1.458;2023-05-25T05:41:50;99306.38;;;14.08;100.00
49723;BME280;43484;43.608;1.458;2023-05-25T05:44:19;99303.78;;;14.03;100.00
49723;BME280;43484;43.608;1.458;2023-05-25T05:46:47;99307.91;;;13.84;100.00
49723;BME280;43484;43.608;1.458;2023-05-25T05:49:14;99307.19;;;14.02;100.00
49723;BME280;43484;43.608;1.458;2023-05-25T05:51:41;99319.16;;;13.97;100.00
49723;BME280;43484;43.608;1.458;2023-05-25T05:54:07;99320.03;;;13.99;100.00
49723;BME280;43484;43.608;1.458;2023-05-25T05:56:34;99323.53;;;14.09;100.00
49723;BME280;43484;43.608;1.458;2023-05-25T05:59:00;99327.91;;;14.20;100.00
49723;BME280;43484;43.608;1.458;2023-05-25T06:01:27;99333.03;;;14.14;100.00
49723;BME280;43484;43.608;1.458;2023-05-25T06:03:54;99332.13;;;14.09;100.00
49723;BME280;43484;43.608;1.458;2023-05-25T06:06:21;99329.56;;;14.09;100.00
49723;BME280;43484;43.608;1.458;2023-05-25T06:08:49;99336.44;;;14.12;100.00
49723;BME280;43484;43.608;1.458;2023-05-25T06:11:16;99347.63;;;14.17;100.00
49723;BME280;43484;43.608;1.458;2023-05-25T06:13:43;99354.66;;;14.30;100.00
49723;BME280;43484;43.608;1.458;2023-05-25T06:16:11;99366.63;;;14.26;100.00
49723;BME280;43484;43.608;1.458;2023-05-25T06:18:38;99393.34;;;14.37;100.00
49723;BME280;43484;43.608;1.458;2023-05-25T06:21:05;99392.44;;;14.32;100.00
49723;BME280;43484;43.608;1.458;2023-05-25T06:23:31;99414.03;;;14.46;100.00
49723;BME280;43484;43.608;1.458;2023-05-25T06:26:05;99433.00;;;14.57;100.00
49723;BME280;43484;43.608;1.458;2023-05-25T06:28:31;99467.41;;;14.65;100.00
49723;BME280;43484;43.608;1.458;2023-05-25T06:30:58;99482.81;;;14.55;100.00
49723;BME280;43484;43.608;1.458;2023-05-25T06:33:25;99483.66;;;14.55;100.00
49723;BME280;43484;43.608;1.458;2023-05-25T06:35:52;99479.25;;;14.39;100.00
49723;BME280;43484;43.608;1.458;2023-05-25T06:38:23;99486.22;;;14.52;100.00
49723;BME280;43484;43.608;1.458;2023-05-25T06:40:50;99500.09;;;14.65;100.00
49723;BME280;43484;43.608;1.458;2023-05-25T06:43:17;99497.53;;;14.68;100.00
49723;BME280;43484;43.608;1.458;2023-05-25T06:45:43;99514.03;;;14.95;100.00
49723;BME280;43484;43.608;1.458;2023-05-25T06:48:10;99545.06;;;15.01;100.00
49723;BME280;43484;43.608;1.458;2023-05-25T06:50:37;99572.56;;;15.04;100.00
49723;BME280;43484;43.608;1.458;2023-05-25T06:53:05;99586.38;;;15.12;100.00
49723;BME280;43484;43.608;1.458;2023-05-25T06:55:32;99612.28;;;15.26;100.00
49723;BME280;43484;43.608;1.458;2023-05-25T06:57:59;99645.03;;;15.33;100.00
49723;BME280;43484;43.608;1.458;2023-05-25T07:00:26;99683.78;;;15.36;100.00
49723;BME280;43484;43.608;1.458;2023-05-25T07:02:53;99711.19;;;15.20;100.00
49723;BME280;43484;43.608;1.458;2023-05-25T07:05:20;99710.22;;;15.07;100.00
49723;BME280;43484;43.608;1.458;2023-05-25T07:07:47;99715.34;;;15.06;100.00
49723;BME280;43484;43.608;1.458;2023-05-25T07:10:14;99713.66;;;15.09;100.00
49723;BME280;43484;43.608;1.458;2023-05-25T07:12:40;99725.00;;;15.25;100.00
49723;BME280;43484;43.608;1.458;2023-05-25T07:15:07;99737.03;;;15.23;100.00
49723;BME280;43484;43.608;1.458;2023-05-25T07:17:34;99741.50;;;15.41;100.00
49723;BME280;43484;43.608;1.458;2023-05-25T07:20:02;99750.84;;;15.31;100.00
49723;BME280;43484;43.608;1.458;2023-05-25T07:22:30;99751.72;;;15.29;100.00
49723;BME280;43484;43.608;1.458;2023-05-25T07:24:56;99752.50;;;15.23;100.00
49723;BME280;43484;43.608;1.458;2023-05-25T07:27:24;99762.66;;;15.05;100.00
49723;BME280;43484;43.608;1.458;2023-05-25T07:29:50;99765.28;;;15.13;100.00
49723;BME280;43484;43.608;1.458;2023-05-25T07:32:17;99775.59;;;15.11;100.00
49723;BME280;43484;43.608;1.458;2023-05-25T07:34:44;99775.75;;;15.25;100.00
49723;BME280;43484;43.608;1.458;2023-05-25T07:37:10;99778.44;;;15.35;100.00
49723;BME280;43484;43.608;1.458;2023-05-25T07:39:37;99775.63;;;15.13;100.00
49723;BME280;43484;43.608;1.458;2023-05-25T07:42:05;99777.53;;;15.32;100.00
49723;BME280;43484;43.608;1.458;2023-05-25T07:44:32;99777.63;;;15.39;100.00
49723;BME280;43484;43.608;1.458;2023-05-25T07:46:59;99779.44;;;15.48;100.00
49723;BME280;43484;43.608;1.458;2023-05-25T07:49:26;99795.66;;;15.36;100.00
49723;BME280;43484;43.608;1.458;2023-05-25T07:51:53;99792.41;;;15.54;100.00
49723;BME280;43484;43.608;1.458;2023-05-25T07:54:19;99799.41;;;15.65;100.00
49723;BME280;43484;43.608;1.458;2023-05-25T07:56:46;99803.78;;;15.74;100.00
49723;BME280;43484;43.608;1.458;2023-05-25T07:59:13;99807.28;;;15.83;100.00
49723;BME280;43484;43.608;1.458;2023-05-25T08:01:39;99810.66;;;15.75;100.00
49723;BME280;43484;43.608;1.458;2023-05-25T08:04:06;99807.19;;;15.73;100.00
49723;BME280;43484;43.608;1.458;2023-05-25T08:06:33;99816.75;;;15.83;100.00
49723;BME280;43484;43.608;1.458;2023-05-25T08:09:01;99815.03;;;15.80;100.00
49723;BME280;43484;43.608;1.458;2023-05-25T08:11:28;99818.44;;;15.79;100.00
49723;BME280;43484;43.608;1.458;2023-05-25T08:13:56;99826.25;;;15.84;100.00
49723;BME280;43484;43.608;1.458;2023-05-25T08:16:23;99809.97;;;15.95;100.00
49723;BME280;43484;43.608;1.458;2023-05-25T08:18:49;99794.59;;;16.13;100.00
49723;BME280;43484;43.608;1.458;2023-05-25T08:21:17;99799.88;;;16.34;100.00
49723;BME280;43484;43.608;1.458;2023-05-25T08:23:44;99811.09;;;16.35;100.00
49723;BME280;43484;43.608;1.458;2023-05-25T08:26:11;99811.91;;;16.28;100.00
49723;BME280;43484;43.608;1.458;2023-05-25T08:28:41;99809.31;;;16.25;100.00
49723;BME280;43484;43.608;1.458;2023-05-25T08:31:07;99806.69;;;16.19;100.00
49723;BME280;43484;43.608;1.458;2023-05-25T08:33:34;99811.00;;;16.21;100.00
49723;BME280;43484;43.608;1.458;2023-05-25T08:36:01;99812.75;;;16.25;100.00
49723;BME280;43484;43.608;1.458;2023-05-25T08:38:27;99807.59;;;16.27;100.00
49723;BME280;43484;43.608;1.458;2023-05-25T08:41:05;99819.66;;;16.31;100.00
49723;BME280;43484;43.608;1.458;2023-05-25T08:43:33;99817.13;;;16.36;100.00
49723;BME280;43484;43.608;1.458;2023-05-25T08:46:03;99804.31;;;16.49;100.00
49723;BME280;43484;43.608;1.458;2023-05-25T08:48:35;99811.28;;;16.61;100.00
49723;BME280;43484;43.608;1.458;2023-05-25T08:51:09;99809.56;;;16.63;100.00
49723;BME280;43484;43.608;1.458;2023-05-25T08:53:39;99809.63;;;16.84;100.00
49723;BME280;43484;43.608;1.458;2023-05-25T08:56:15;99811.41;;;16.98;100.00
49723;BME280;43484;43.608;1.458;2023-05-25T08:58:47;99806.31;;;17.31;100.00
49723;BME280;43484;43.608;1.458;2023-05-25T09:01:19;99810.72;;;17.47;100.00
49723;BME280;43484;43.608;1.458;2023-05-25T09:03:48;99817.56;;;17.44;100.00
49723;BME280;43484;43.608;1.458;2023-05-25T09:06:16;99831.44;;;17.55;100.00
49723;BME280;43484;43.608;1.458;2023-05-25T09:08:43;99817.56;;;17.42;100.00
49723;BME280;43484;43.608;1.458;2023-05-25T09:11:11;99808.94;;;17.36;100.00
49723;BME280;43484;43.608;1.458;2023-05-25T09:13:41;99814.13;;;17.46;100.00
49723;BME280;43484;43.608;1.458;2023-05-25T09:16:08;99820.22;;;17.64;100.00
49723;BME280;43484;43.608;1.458;2023-05-25T09:18:36;99818.44;;;17.43;100.00
49723;BME280;43484;43.608;1.458;2023-05-25T09:21:03;99827.06;;;17.36;100.00
49723;BME280;43484;43.608;1.458;2023-05-25T09:23:31;99825.38;;;17.48;100.00
49723;BME280;43484;43.608;1.458;2023-05-25T09:25:57;99818.41;;;17.40;100.00
49723;BME280;43484;43.608;1.458;2023-05-25T09:28:24;99817.59;;;17.47;100.00
49723;BME280;43484;43.608;1.458;2023-05-25T09:30:53;99821.06;;;17.55;100.00
49723;BME280;43484;43.608;1.458;2023-05-25T09:33:20;99817.63;;;17.71;100.00
49723;BME280;43484;43.608;1.458;2023-05-25T09:35:47;99818.50;;;17.73;100.00
49723;BME280;43484;43.608;1.458;2023-05-25T09:38:15;99804.66;;;17.91;100.00
49723;BME280;43484;43.608;1.458;2023-05-25T09:40:43;99812.47;;;18.00;100.00
49723;BME280;43484;43.608;1.458;2023-05-25T09:43:11;99807.28;;;17.74;100.00
49723;BME280;43484;43.608;1.458;2023-05-25T09:45:47;99795.16;;;17.85;100.00
49723;BME280;43484;43.608;1.458;2023-05-25T09:48:14;99787.34;;;18.21;100.00
49723;BME280;43484;43.608;1.458;2023-05-25T09:50:41;99792.56;;;18.09;100.00
49723;BME280;43484;43.608;1.458;2023-05-25T09:53:09;99797.69;;;18.29;100.00
49723;BME280;43484;43.608;1.458;2023-05-25T09:55:37;99796.91;;;17.92;100.00
49723;BME280;43484;43.608;1.458;2023-05-25T09:58:21;99797.69;;;18.45;100.00
49723;BME280;43484;43.608;1.458;2023-05-25T10:00:52;99795.09;;;18.50;100.00
49723;BME280;43484;43.608;1.458;2023-05-25T10:03:21;99797.66;;;18.63;100.00
49723;BME280;43484;43.608;1.458;2023-05-25T10:05:48;99806.34;;;18.43;100.00
49723;BME280;43484;43.608;1.458;2023-05-25T10:08:16;99795.94;;;18.49;100.00
49723;BME280;43484;43.608;1.458;2023-05-25T10:10:47;99793.38;;;18.52;100.00
49723;BME280;43484;43.608;1.458;2023-05-25T10:13:20;99806.28;;;18.68;100.00
49723;BME280;43484;43.608;1.458;2023-05-25T10:15:52;99811.41;;;18.79;100.00
49723;BME280;43484;43.608;1.458;2023-05-25T10:18:24;99803.50;;;19.06;100.00
49723;BME280;43484;43.608;1.458;2023-05-25T10:20:58;99816.56;;;18.88;100.00
49723;BME280;43484;43.608;1.458;2023-05-25T10:23:37;99805.41;;;18.69;100.00
49723;BME280;43484;43.608;1.458;2023-05-25T10:26:07;99807.09;;;18.80;100.00
49723;BME280;43484;43.608;1.458;2023-05-25T10:28:36;99791.41;;;18.99;100.00
49723;BME280;43484;43.608;1.458;2023-05-25T10:31:04;99808.50;;;19.41;100.00
49723;BME280;43484;43.608;1.458;2023-05-25T10:33:31;99813.09;;;18.95;100.00
49723;BME280;43484;43.608;1.458;2023-05-25T10:35:59;99819.06;;;19.11;100.00
49723;BME280;43484;43.608;1.458;2023-05-25T10:38:38;99813.22;;;18.65;100.00
49723;BME280;43484;43.608;1.458;2023-05-25T10:41:08;99816.75;;;18.40;100.00
49723;BME280;43484;43.608;1.458;2023-05-25T10:43:36;99817.53;;;18.72;100.00
49723;BME280;43484;43.608;1.458;2023-05-25T10:46:04;99809.59;;;18.98;100.00
49723;BME280;43484;43.608;1.458;2023-05-25T10:48:38;99815.53;;;19.30;100.00
49723;BME280;43484;43.608;1.458;2023-05-25T10:51:05;99808.44;;;19.53;100.00
49723;BME280;43484;43.608;1.458;2023-05-25T10:53:36;99811.81;;;19.67;100.00
49723;BME280;43484;43.608;1.458;2023-05-25T10:56:04;99815.78;;;18.77;100.00
49723;BME280;43484;43.608;1.458;2023-05-25T10:58:32;99819.31;;;18.47;100.00
49723;BME280;43484;43.608;1.458;2023-05-25T11:06:14;99832.16;;;18.81;100.00
49723;BME280;43484;43.608;1.458;2023-05-25T11:08:52;99824.19;;;19.30;100.00
49723;BME280;43484;43.608;1.458;2023-05-25T11:11:19;99829.25;;;19.50;100.00
49723;BME280;43484;43.608;1.458;2023-05-25T11:13:48;99835.63;;;18.89;100.00
49723;BME280;43484;43.608;1.458;2023-05-25T11:16:19;99825.84;;;19.43;100.00
49723;BME280;43484;43.608;1.458;2023-05-25T11:18:56;99825.78;;;19.48;100.00
49723;BME280;43484;43.608;1.458;2023-05-25T11:23:55;99824.97;;;19.47;100.00
49723;BME280;43484;43.608;1.458;2023-05-25T11:26:24;99834.63;;;19.11;100.00
49723;BME280;43484;43.608;1.458;2023-05-25T11:28:55;99837.16;;;19.26;100.00
49723;BME280;43484;43.608;1.458;2023-05-25T11:31:32;99834.59;;;19.20;100.00
49723;BME280;43484;43.608;1.458;2023-05-25T11:34:07;99832.78;;;19.40;100.00
49723;BME280;43484;43.608;1.458;2023-05-25T11:36:35;99822.44;;;19.31;100.00
49723;BME280;43484;43.608;1.458;2023-05-25T11:39:03;99818.03;;;19.43;100.00
49723;BME280;43484;43.608;1.458;2023-05-25T11:41:47;99825.69;;;19.63;100.00
49723;BME280;43484;43.608;1.458;2023-05-25T11:44:30;99813.28;;;19.96;100.00
49723;BME280;43484;43.608;1.458;2023-05-25T11:47:11;99821.88;;;20.09;100.00
49723;BME280;43484;43.608;1.458;2023-05-25T11:49:45;99817.56;;;20.04;100.00
49723;BME280;43484;43.608;1.458;2023-05-25T11:52:17;99814.63;;;20.40;100.00
49723;BME280;43484;43.608;1.458;2023-05-25T11:54:44;99821.34;;;20.62;100.00
49723;BME280;43484;43.608;1.458;2023-05-25T11:57:16;99815.59;;;20.31;100.00
49723;BME280;43484;43.608;1.458;2023-05-25T11:59:51;99822.56;;;20.29;100.00
49723;BME280;43484;43.608;1.458;2023-05-25T12:02:19;99815.59;;;20.30;100.00
49723;BME280;43484;43.608;1.458;2023-05-25T12:04:56;99813.63;;;20.54;100.00
49723;BME280;43484;43.608;1.458;2023-05-25T12:07:24;99816.13;;;20.62;100.00
49723;BME280;43484;43.608;1.458;2023-05-25T12:10:12;99807.22;;;19.94;100.00
49723;BME280;43484;43.608;1.458;2023-05-25T12:12:41;99817.56;;;20.05;100.00
49723;BME280;43484;43.608;1.458;2023-05-25T12:15:21;99808.09;;;19.96;100.00
49723;BME280;43484;43.608;1.458;2023-05-25T12:17:49;99806.06;;;20.30;100.00
49723;BME280;43484;43.608;1.458;2023-05-25T12:20:17;99804.50;;;20.10;100.00
49723;BME280;43484;43.608;1.458;2023-05-25T12:22:44;99800.22;;;20.06;100.00
49723;BME280;43484;43.608;1.458;2023-05-25T12:25:13;99804.31;;;20.34;100.00
49723;BME280;43484;43.608;1.458;2023-05-25T12:27:43;99796.69;;;20.11;100.00
49723;BME280;43484;43.608;1.458;2023-05-25T12:30:10;99789.50;;;20.39;100.00
49723;BME280;43484;43.608;1.458;2023-05-25T12:32:53;99786.91;;;20.37;100.00
49723;BME280;43484;43.608;1.458;2023-05-25T12:35:20;99796.50;;;20.34;100.00
49723;BME280;43484;43.608;1.458;2023-05-25T12:37:47;99796.22;;;20.59;100.00
49723;BME280;43484;43.608;1.458;2023-05-25T12:40:20;99797.19;;;20.49;100.00
49723;BME280;43484;43.608;1.458;2023-05-25T12:42:56;99795.47;;;20.47;100.00
49723;BME280;43484;43.608;1.458;2023-05-25T12:45:23;99791.97;;;20.51;100.00
49723;BME280;43484;43.608;1.458;2023-05-25T12:47:49;99795.56;;;20.39;100.00
49723;BME280;43484;43.608;1.458;2023-05-25T12:50:17;99801.81;;;20.23;100.00
49723;BME280;43484;43.608;1.458;2023-05-25T12:52:46;99793.09;;;20.27;100.00
49723;BME280;43484;43.608;1.458;2023-05-25T12:55:21;99779.19;;;20.28;100.00
49723;BME280;43484;43.608;1.458;2023-05-25T12:58:26;99791.84;;;20.63;100.00
49723;BME280;43484;43.608;1.458;2023-05-25T13:00:53;99779.78;;;20.56;100.00
49723;BME280;43484;43.608;1.458;2023-05-25T13:03:20;99779.03;;;20.43;100.00
49723;BME280;43484;43.608;1.458;2023-05-25T13:05:46;99778.03;;;20.56;100.00
49723;BME280;43484;43.608;1.458;2023-05-25T13:08:13;99777.16;;;20.57;100.00
49723;BME280;43484;43.608;1.458;2023-05-25T13:10:40;99778.09;;;20.50;100.00